Time;durP1;ratioP1;P1;durP2;ratioP2;P2;SDS_P1;SDS_P2;PMS_P1;PMS_P2;Temp;Humidity;BMP_temperature;BMP_pressure;BME280_temperature;BME280_humidity;BME280_pressure;Samples;Min_cycle;Max_cycle;Signal;HPM_P1;HPM_P2
2022/12/22 03:27:17;;;;;;;5.70;2.27;;;9.90;99.90;;;;;;466598;254;28635;-76
2022/12/22 03:29:19;;;;;;;7.30;2.40;;;9.90;99.90;;;;;;466582;253;28462;-81
2022/12/22 03:31:20;;;;;;;3.37;1.80;;;10.00;99.90;;;;;;466550;253;28078;-78
2022/12/22 03:33:21;;;;;;;4.80;2.03;;;10.00;99.90;;;;;;466572;253;27915;-80
2022/12/22 03:35:22;;;;;;;6.27;2.27;;;9.90;99.90;;;;;;466593;254;27983;-80
2022/12/22 03:37:24;;;;;;;5.57;2.60;;;9.90;99.90;;;;;;466610;253;28146;-82
2022/12/22 03:39:25;;;;;;;4.93;1.90;;;9.90;99.90;;;;;;466573;254;27954;-79
2022/12/22 03:48:24;;;;;;;3.13;1.80;;;9.90;99.90;;;;;;466442;253;27994;-77
2022/12/22 03:50:26;;;;;;;3.70;2.30;;;9.90;99.90;;;;;;466442;253;28008;-77
2022/12/22 03:52:27;;;;;;;3.13;1.67;;;9.90;99.90;;;;;;466410;253;28089;-79
2022/12/22 03:54:28;;;;;;;3.80;1.50;;;9.90;99.90;;;;;;466484;249;27901;-79
2022/12/22 03:56:29;;;;;;;1.60;1.50;;;9.90;99.90;;;;;;467266;254;27915;-79
2022/12/22 03:58:31;;;;;;;2.87;1.50;;;9.80;99.90;;;;;;466508;253;28024;-78
2022/12/22 04:00:32;;;;;;;4.40;1.83;;;9.80;99.90;;;;;;466489;253;27862;-79
2022/12/22 04:02:33;;;;;;;1.53;1.43;;;9.90;99.90;;;;;;466468;253;27618;-79
2022/12/22 04:04:34;;;;;;;2.00;1.60;;;9.90;99.90;;;;;;466431;249;27892;-77
2022/12/22 04:06:36;;;;;;;2.30;1.60;;;9.90;99.90;;;;;;466444;253;28002;-77
2022/12/22 04:08:37;;;;;;;2.50;1.50;;;9.80;99.90;;;;;;466400;253;27783;-77
2022/12/22 04:12:57;;;;;;;3.47;1.60;;;9.90;99.90;;;;;;466426;253;27638;-80
2022/12/22 04:14:58;;;;;;;2.87;1.60;;;9.90;99.90;;;;;;458757;259;27980;-79
2022/12/22 04:17:00;;;;;;;2.00;1.50;;;9.80;99.90;;;;;;467285;254;27551;-79
2022/12/22 04:19:01;;;;;;;3.60;1.50;;;9.80;99.90;;;;;;466413;253;27853;-78
2022/12/22 04:21:02;;;;;;;2.00;1.67;;;9.80;99.90;;;;;;466472;254;28019;-78
2022/12/22 04:23:03;;;;;;;2.83;1.50;;;9.90;99.90;;;;;;466472;253;28434;-79
2022/12/22 04:25:05;;;;;;;4.23;1.50;;;9.80;99.90;;;;;;466459;253;28996;-79
2022/12/22 04:27:06;;;;;;;1.60;1.50;;;9.90;99.90;;;;;;466497;253;28479;-79
2022/12/22 04:29:07;;;;;;;1.97;1.77;;;9.80;99.90;;;;;;466517;253;28454;-78
2022/12/22 04:31:08;;;;;;;1.70;1.60;;;9.80;99.90;;;;;;466524;254;28023;-79
2022/12/22 04:33:10;;;;;;;4.93;2.00;;;9.80;99.90;;;;;;466527;253;28017;-78
2022/12/22 04:35:11;;;;;;;4.47;2.20;;;9.80;99.90;;;;;;466592;253;27644;-78
2022/12/22 04:37:12;;;;;;;6.20;2.07;;;9.90;99.90;;;;;;466552;253;27724;-79
2022/12/22 04:39:13;;;;;;;5.90;1.80;;;9.90;99.90;;;;;;466540;253;28090;-78
2022/12/22 04:41:15;;;;;;;10.10;2.20;;;9.90;99.90;;;;;;466487;253;27646;-79
2022/12/22 04:43:16;;;;;;;3.33;1.83;;;9.90;99.90;;;;;;466546;253;28145;-78
2022/12/22 04:45:17;;;;;;;1.60;1.50;;;9.90;99.90;;;;;;466548;253;28215;-79
2022/12/22 04:47:18;;;;;;;3.97;2.00;;;9.80;99.90;;;;;;466613;253;27723;-79
2022/12/22 04:49:20;;;;;;;6.37;2.07;;;9.90;99.90;;;;;;466571;253;28103;-78
2022/12/22 04:51:21;;;;;;;4.43;1.67;;;9.90;99.90;;;;;;466536;253;27979;-80
2022/12/22 04:53:22;;;;;;;2.83;1.70;;;9.90;99.90;;;;;;466639;254;28023;-80
2022/12/22 04:55:23;;;;;;;6.03;2.00;;;9.90;99.90;;;;;;466568;249;28000;-80
2022/12/22 04:57:25;;;;;;;4.40;1.77;;;9.90;99.90;;;;;;466667;253;27609;-81
2022/12/22 04:59:26;;;;;;;2.77;1.80;;;9.90;99.90;;;;;;466686;253;28435;-78
2022/12/22 05:01:27;;;;;;;3.63;1.90;;;9.90;99.90;;;;;;466684;253;28467;-79
2022/12/22 05:03:28;;;;;;;6.70;2.10;;;9.90;99.90;;;;;;466690;254;28601;-80
2022/12/22 05:05:30;;;;;;;5.00;2.17;;;9.90;99.90;;;;;;466673;253;28109;-80
2022/12/22 05:07:31;;;;;;;5.27;1.80;;;9.90;99.90;;;;;;466662;253;27967;-79
2022/12/22 05:09:32;;;;;;;4.47;2.23;;;9.90;99.90;;;;;;466672;253;28106;-78
2022/12/22 05:11:33;;;;;;;5.23;2.17;;;9.90;99.90;;;;;;466671;253;28087;-79
2022/12/22 05:13:35;;;;;;;8.80;2.10;;;9.90;99.90;;;;;;466762;253;28006;-81
2022/12/22 05:15:36;;;;;;;7.30;2.40;;;9.80;99.90;;;;;;466737;253;28002;-79
2022/12/22 05:17:37;;;;;;;6.33;2.47;;;9.90;99.90;;;;;;466738;253;27981;-80
2022/12/22 05:19:38;;;;;;;5.80;2.03;;;9.90;99.90;;;;;;466766;253;27881;-78
2022/12/22 05:21:40;;;;;;;5.30;2.27;;;9.80;99.90;;;;;;459083;259;27927;-79
2022/12/22 05:23:41;;;;;;;5.93;2.30;;;9.80;99.90;;;;;;467583;255;27540;-79
2022/12/22 05:25:42;;;;;;;6.07;2.67;;;9.90;99.90;;;;;;466684;253;27987;-79
2022/12/22 05:27:43;;;;;;;9.10;2.30;;;9.80;99.90;;;;;;466680;254;27891;-81
2022/12/22 05:29:45;;;;;;;8.33;2.57;;;9.90;99.90;;;;;;466726;253;27997;-77
2022/12/22 05:31:46;;;;;;;10.30;2.70;;;9.90;99.90;;;;;;466639;253;27874;-80
2022/12/22 05:33:47;;;;;;;10.23;2.77;;;9.80;99.90;;;;;;466597;253;28554;-78
2022/12/22 05:35:48;;;;;;;14.13;3.37;;;9.80;99.90;;;;;;466624;253;28082;-79
2022/12/22 05:37:50;;;;;;;10.47;2.70;;;9.80;99.90;;;;;;466620;253;28459;-78
2022/12/22 05:39:51;;;;;;;8.07;2.83;;;9.80;99.90;;;;;;466653;248;27981;-76
2022/12/22 05:41:52;;;;;;;5.50;2.30;;;9.90;99.90;;;;;;466699;253;27975;-82
2022/12/22 05:43:53;;;;;;;6.63;2.60;;;9.90;99.90;;;;;;466767;253;27885;-79
2022/12/22 05:45:55;;;;;;;12.00;2.40;;;9.90;99.90;;;;;;466738;254;28020;-80
2022/12/22 05:47:56;;;;;;;7.33;2.60;;;9.90;99.90;;;;;;466632;253;27802;-79
2022/12/22 05:49:57;;;;;;;5.63;2.17;;;9.80;99.90;;;;;;466459;253;27989;-79
2022/12/22 05:51:59;;;;;;;5.77;2.40;;;9.80;99.90;;;;;;466456;253;27976;-78
2022/12/22 05:54:00;;;;;;;5.67;2.60;;;9.80;99.90;;;;;;466482;253;27988;-80
2022/12/22 05:56:01;;;;;;;5.77;2.40;;;9.80;99.90;;;;;;466533;249;28717;-78
2022/12/22 05:58:02;;;;;;;5.13;1.90;;;9.80;99.90;;;;;;466556;255;28442;-81
2022/12/22 06:00:04;;;;;;;9.27;2.60;;;9.80;99.90;;;;;;458844;259;28366;-78
2022/12/22 06:02:05;;;;;;;6.43;2.07;;;9.80;99.90;;;;;;467168;255;28466;-80
2022/12/22 06:04:06;;;;;;;10.30;2.00;;;9.80;99.90;;;;;;458926;258;28283;-80
2022/12/22 06:06:07;;;;;;;9.37;2.23;;;9.70;99.90;;;;;;467418;255;27926;-80
2022/12/22 06:08:09;;;;;;;7.67;2.50;;;9.80;99.90;;;;;;466575;253;27880;-80
2022/12/22 06:10:10;;;;;;;7.83;2.63;;;9.80;99.90;;;;;;466580;254;28093;-79
2022/12/22 06:12:11;;;;;;;10.13;2.60;;;9.80;99.90;;;;;;466571;253;28124;-78
2022/12/22 06:14:12;;;;;;;5.83;2.27;;;9.80;99.90;;;;;;466383;249;27914;-78
2022/12/22 06:16:14;;;;;;;8.43;2.50;;;9.80;99.90;;;;;;458770;259;27566;-80
2022/12/22 06:18:15;;;;;;;12.70;2.40;;;9.80;99.90;;;;;;467284;254;27896;-79
2022/12/22 06:20:17;;;;;;;4.57;1.90;;;9.80;99.90;;;;;;466306;253;28580;-78
2022/12/22 06:22:18;;;;;;;7.93;2.47;;;9.70;99.90;;;;;;466401;254;28109;-80
2022/12/22 06:24:20;;;;;;;7.67;1.97;;;9.80;99.90;;;;;;466476;253;28176;-78
2022/12/22 06:26:21;;;;;;;7.93;2.10;;;9.70;99.90;;;;;;466490;253;27752;-79
2022/12/22 06:28:22;;;;;;;7.37;2.47;;;9.70;99.90;;;;;;466531;253;27899;-77
2022/12/22 06:30:23;;;;;;;10.27;2.10;;;9.80;99.90;;;;;;466479;253;28011;-79
2022/12/22 06:32:25;;;;;;;8.93;2.17;;;9.70;99.90;;;;;;466512;253;28123;-78
2022/12/22 06:34:26;;;;;;;5.93;2.00;;;9.70;99.90;;;;;;466523;254;28089;-81
2022/12/22 06:36:27;;;;;;;6.30;2.60;;;9.70;99.90;;;;;;466482;254;27998;-78
2022/12/22 06:38:28;;;;;;;6.37;2.70;;;9.70;99.90;;;;;;466515;253;27908;-77
2022/12/22 06:40:30;;;;;;;5.07;2.83;;;9.70;99.90;;;;;;466432;253;28123;-79
2022/12/22 06:44:51;;;;;;;13.50;2.80;;;9.70;99.90;;;;;;466535;253;28391;-80
2022/12/22 06:46:51;;;;;;;10.07;2.53;;;9.70;99.90;;;;;;466503;254;28236;-78
2022/12/22 06:48:52;;;;;;;12.70;2.80;;;9.70;99.90;;;;;;458879;259;28013;-78
2022/12/22 06:50:54;;;;;;;10.77;3.17;;;9.70;99.90;;;;;;467402;253;27853;-79
2022/12/22 06:52:55;;;;;;;8.70;2.47;;;9.60;99.90;;;;;;466480;253;28569;-79
2022/12/22 06:54:56;;;;;;;12.90;3.53;;;9.60;99.90;;;;;;466619;253;28678;-81
2022/12/22 06:56:57;;;;;;;9.10;3.27;;;9.60;99.90;;;;;;466622;253;28492;-79
2022/12/22 06:58:59;;;;;;;15.27;3.10;;;9.70;99.90;;;;;;458848;259;28005;-78
2022/12/22 07:01:00;;;;;;;15.20;3.60;;;9.70;99.90;;;;;;467381;254;27928;-81
2022/12/22 07:03:01;;;;;;;7.77;2.70;;;9.60;99.90;;;;;;466565;253;28023;-79
2022/12/22 07:05:02;;;;;;;10.70;2.93;;;9.60;99.90;;;;;;466513;253;27658;-79
2022/12/22 07:07:04;;;;;;;10.53;2.80;;;9.70;99.90;;;;;;466590;253;27971;-81
2022/12/22 07:09:05;;;;;;;7.10;2.40;;;9.60;99.90;;;;;;466662;253;27959;-79
2022/12/22 07:11:06;;;;;;;6.90;3.17;;;9.70;99.90;;;;;;466912;253;28002;-80
2022/12/22 07:13:18;;;;;;;13.10;3.63;;;9.60;99.90;;;;;;466981;253;28100;-79
2022/12/22 07:15:09;;;;;;;30.07;13.37;;;9.70;99.90;;;;;;467018;253;27969;-79
2022/12/22 07:17:10;;;;;;;15.87;3.77;;;9.60;99.90;;;;;;467001;254;27772;-78
2022/12/22 07:19:11;;;;;;;15.67;4.03;;;9.70;99.90;;;;;;466962;253;28376;-78
2022/12/22 07:21:12;;;;;;;17.10;4.87;;;9.60;99.90;;;;;;467078;253;28452;-80
2022/12/22 07:23:14;;;;;;;14.43;3.33;;;9.60;99.90;;;;;;467122;253;28023;-79
2022/12/22 07:25:15;;;;;;;7.10;2.67;;;9.60;99.90;;;;;;467082;253;27653;-79
2022/12/22 07:27:16;;;;;;;13.77;2.73;;;9.60;99.90;;;;;;467068;253;27411;-78
2022/12/22 07:29:18;;;;;;;8.80;2.63;;;9.60;99.90;;;;;;467238;253;27924;-79
2022/12/22 07:31:19;;;;;;;6.50;2.63;;;9.60;99.90;;;;;;467299;253;27541;-80
2022/12/22 07:33:20;;;;;;;12.60;3.20;;;9.60;99.90;;;;;;467236;253;27645;-80
2022/12/22 07:35:21;;;;;;;19.00;2.80;;;9.60;99.90;;;;;;467258;253;27911;-77
2022/12/22 07:37:23;;;;;;;10.50;3.00;;;9.60;99.90;;;;;;467381;253;27867;-81
2022/12/22 07:39:24;;;;;;;8.80;3.00;;;9.60;99.90;;;;;;467133;254;28517;-79
2022/12/22 07:43:44;;;;;;;14.10;3.53;;;9.60;99.90;;;;;;467109;253;27925;-81
2022/12/22 07:45:45;;;;;;;9.70;3.63;;;9.60;99.90;;;;;;467124;253;28082;-78
2022/12/22 07:47:47;;;;;;;14.23;3.50;;;9.60;99.90;;;;;;467100;253;28389;-80
2022/12/22 07:52:01;;;;;;;12.00;3.80;;;9.60;99.90;;;;;;460005;258;27895;-81
2022/12/22 07:54:02;;;;;;;13.33;4.53;;;9.60;99.90;;;;;;460037;259;28468;-76
2022/12/22 07:56:04;;;;;;;11.13;3.70;;;9.60;99.90;;;;;;460066;259;28082;-77
2022/12/22 07:58:05;;;;;;;14.37;3.60;;;9.60;99.90;;;;;;460039;259;28146;-83
2022/12/22 08:00:06;;;;;;;18.90;3.70;;;9.60;99.90;;;;;;459938;259;28621;-79
2022/12/22 08:02:07;;;;;;;21.90;3.90;;;9.60;99.90;;;;;;459892;259;28467;-80
2022/12/22 08:04:09;;;;;;;22.23;3.87;;;9.60;99.90;;;;;;459774;259;28723;-79
2022/12/22 08:06:10;;;;;;;15.00;3.77;;;9.60;99.90;;;;;;455712;259;27678;-77
2022/12/22 08:08:11;;;;;;;18.17;3.67;;;9.60;99.90;;;;;;461887;258;28051;-79
2022/12/22 08:10:12;;;;;;;16.03;3.50;;;9.70;99.90;;;;;;448506;265;27881;-83
2022/12/22 08:12:14;;;;;;;19.13;4.00;;;9.70;99.90;;;;;;448430;265;28116;-79
2022/12/22 08:14:15;;;;;;;14.77;4.10;;;9.60;99.90;;;;;;448478;265;28093;-79
2022/12/22 08:16:16;;;;;;;11.40;4.43;;;9.60;99.90;;;;;;448437;265;27708;-77
2022/12/22 08:18:17;;;;;;;23.30;4.60;;;9.60;99.90;;;;;;448426;265;28100;-78
2022/12/22 08:20:19;;;;;;;12.80;3.80;;;9.60;99.90;;;;;;448395;265;28027;-79
2022/12/22 08:22:22;;;;;;;15.27;3.83;;;9.60;99.90;;;;;;448368;265;28013;-79
2022/12/22 08:24:21;;;;;;;13.07;3.73;;;9.60;99.90;;;;;;448226;265;28665;-79
2022/12/22 08:26:22;;;;;;;13.70;3.97;;;9.60;99.90;;;;;;448383;265;28321;-78
2022/12/22 08:28:24;;;;;;;20.43;4.30;;;9.50;99.90;;;;;;454064;256;28160;-80
2022/12/22 08:30:25;;;;;;;13.10;3.60;;;9.50;99.90;;;;;;483390;245;28029;-77
2022/12/22 08:32:26;;;;;;;12.33;3.20;;;9.50;99.90;;;;;;470958;253;28018;-77
2022/12/22 08:34:27;;;;;;;31.63;4.00;;;9.50;99.90;;;;;;486119;245;27882;-79
2022/12/22 08:36:29;;;;;;;17.43;3.23;;;9.50;99.90;;;;;;470482;253;28028;-79
2022/12/22 08:38:30;;;;;;;11.03;3.97;;;9.50;99.90;;;;;;485734;245;27987;-80
2022/12/22 08:40:31;;;;;;;16.97;4.27;;;9.50;99.90;;;;;;480024;245;28066;-78
2022/12/22 08:42:33;;;;;;;12.97;3.23;;;9.60;99.90;;;;;;466956;255;28152;-80
2022/12/22 08:44:34;;;;;;;20.97;8.03;;;9.50;99.90;;;;;;475196;250;28009;-78
2022/12/22 08:46:35;;;;;;;13.43;3.20;;;9.60;99.90;;;;;;460688;257;27935;-77
2022/12/22 08:48:36;;;;;;;12.03;3.20;;;9.60;99.90;;;;;;460767;258;28170;-80
2022/12/22 08:50:38;;;;;;;10.80;2.80;;;9.50;99.90;;;;;;460699;258;28081;-80
2022/12/22 08:52:39;;;;;;;6.73;2.30;;;9.50;99.90;;;;;;460831;258;28552;-78
2022/12/22 08:54:40;;;;;;;7.60;2.50;;;9.60;99.90;;;;;;460788;258;28413;-80
2022/12/22 08:56:41;;;;;;;4.83;2.00;;;9.50;99.90;;;;;;460522;258;28488;-78
2022/12/22 08:58:43;;;;;;;9.90;3.20;;;9.50;99.90;;;;;;460504;258;28764;-80
2022/12/22 09:00:44;;;;;;;8.37;2.87;;;9.50;99.90;;;;;;460480;258;28454;-78
2022/12/22 09:02:45;;;;;;;10.13;2.30;;;9.50;99.90;;;;;;460675;258;27768;-78
2022/12/22 09:04:46;;;;;;;6.00;2.67;;;9.50;99.90;;;;;;460620;258;28243;-78
2022/12/22 09:06:48;;;;;;;8.10;1.83;;;9.50;99.90;;;;;;460493;258;28078;-78
2022/12/22 09:08:49;;;;;;;8.03;1.83;;;9.50;99.90;;;;;;460347;258;28059;-80
2022/12/22 09:10:50;;;;;;;8.20;2.40;;;9.50;99.90;;;;;;460467;258;28086;-77
2022/12/22 09:12:51;;;;;;;3.50;1.57;;;9.50;99.90;;;;;;460439;258;28088;-75
2022/12/22 09:14:52;;;;;;;3.73;1.57;;;9.50;99.90;;;;;;460326;258;28179;-77
2022/12/22 09:16:54;;;;;;;4.77;1.60;;;9.50;99.90;;;;;;460304;258;28213;-76
2022/12/22 09:18:55;;;;;;;3.30;1.50;;;9.50;99.90;;;;;;460370;258;28044;-79
2022/12/22 09:20:56;;;;;;;2.30;1.53;;;9.50;99.90;;;;;;460447;258;28069;-79
2022/12/22 09:22:58;;;;;;;4.20;1.57;;;9.50;99.90;;;;;;460504;258;28099;-78
2022/12/22 09:24:59;;;;;;;4.07;1.60;;;9.40;99.90;;;;;;460515;258;27715;-82
2022/12/22 09:27:02;;;;;;;6.47;2.13;;;9.40;99.90;;;;;;460641;258;28055;-79
2022/12/22 09:29:01;;;;;;;4.43;1.53;;;9.40;99.90;;;;;;458221;258;42615;-78
2022/12/22 09:31:03;;;;;;;3.93;1.50;;;9.40;99.90;;;;;;460520;258;29084;-77
2022/12/22 09:33:04;;;;;;;5.33;1.90;;;9.50;99.90;;;;;;460606;258;28090;-78
2022/12/22 09:35:05;;;;;;;1.67;1.37;;;9.40;99.90;;;;;;460552;258;28648;-78
2022/12/22 09:37:06;;;;;;;4.37;1.77;;;9.40;99.90;;;;;;460409;258;28677;-80
2022/12/22 09:39:08;;;;;;;3.27;1.33;;;9.50;99.90;;;;;;460434;258;28513;-77
2022/12/22 09:41:09;;;;;;;5.23;1.43;;;9.50;99.90;;;;;;460537;254;28592;-80
2022/12/22 09:43:10;;;;;;;5.63;1.27;;;9.50;99.90;;;;;;459961;254;28059;-80
2022/12/22 09:45:11;;;;;;;4.83;1.70;;;9.50;99.90;;;;;;462923;257;28436;-79
2022/12/22 09:47:13;;;;;;;4.83;1.50;;;9.50;99.90;;;;;;463042;257;28124;-80
2022/12/22 09:49:14;;;;;;;4.23;1.50;;;9.50;99.90;;;;;;462978;253;28028;-78
2022/12/22 09:51:16;;;;;;;5.20;1.33;;;9.60;99.90;;;;;;453924;262;27693;-80
2022/12/22 09:53:16;;;;;;;1.83;1.20;;;9.50;99.90;;;;;;463024;254;28082;-80
2022/12/22 09:55:18;;;;;;;10.27;1.63;;;9.50;99.90;;;;;;462922;257;27996;-78
2022/12/22 09:57:19;;;;;;;5.27;1.53;;;9.50;99.90;;;;;;453656;262;28058;-80
2022/12/22 09:59:20;;;;;;;3.83;1.40;;;9.50;99.90;;;;;;462887;257;27975;-77
2022/12/22 10:01:21;;;;;;;2.67;1.50;;;9.50;99.90;;;;;;462846;254;28213;-80
2022/12/22 10:03:23;;;;;;;2.73;1.40;;;9.50;99.90;;;;;;462893;257;27994;-78
2022/12/22 10:05:27;;;;;;;4.20;1.30;;;9.50;99.90;;;;;;453948;262;27996;-80
2022/12/22 10:07:25;;;;;;;4.50;1.70;;;9.50;99.90;;;;;;462865;254;27999;-80
2022/12/22 10:09:26;;;;;;;2.20;1.50;;;9.50;99.90;;;;;;462805;256;28026;-72
2022/12/22 10:11:28;;;;;;;3.33;1.80;;;9.50;99.90;;;;;;462846;257;28054;-72
2022/12/22 10:13:29;;;;;;;3.73;1.30;;;9.50;99.90;;;;;;462759;257;28023;-73
2022/12/22 10:15:30;;;;;;;2.10;1.10;;;9.60;99.90;;;;;;453617;262;28942;-73
2022/12/22 10:17:32;;;;;;;3.47;1.40;;;9.50;99.90;;;;;;462806;255;28495;-73
2022/12/22 10:19:33;;;;;;;2.03;0.90;;;9.50;99.90;;;;;;462824;257;28509;-74
2022/12/22 10:21:34;;;;;;;2.57;1.20;;;9.50;99.90;;;;;;462827;253;28509;-72
2022/12/22 10:23:37;;;;;;;1.93;1.30;;;9.60;99.90;;;;;;462817;257;28010;-75
2022/12/22 10:25:37;;;;;;;3.60;1.27;;;9.60;99.90;;;;;;462711;257;27938;-72
2022/12/22 10:27:38;;;;;;;1.50;1.20;;;9.60;99.80;;;;;;462801;257;28586;-73
2022/12/22 10:29:39;;;;;;;3.13;1.70;;;9.60;99.90;;;;;;462770;256;28566;-73
2022/12/22 10:31:40;;;;;;;2.97;1.30;;;9.60;99.90;;;;;;462776;257;28519;-73
2022/12/22 10:33:41;;;;;;;3.00;1.10;;;9.60;99.90;;;;;;453587;262;28588;-72
2022/12/22 10:35:43;;;;;;;2.17;1.30;;;9.50;99.90;;;;;;462754;256;28509;-73
2022/12/22 10:37:44;;;;;;;3.47;1.30;;;9.40;99.90;;;;;;453661;262;28017;-73
2022/12/22 10:39:45;;;;;;;2.77;1.43;;;9.40;99.90;;;;;;462847;256;28199;-72
2022/12/22 10:41:46;;;;;;;2.20;1.10;;;9.40;99.90;;;;;;462871;257;27991;-73
2022/12/22 10:43:48;;;;;;;2.10;1.13;;;9.40;99.90;;;;;;463796;245;28103;-73
2022/12/22 10:45:49;;;;;;;4.50;1.40;;;9.40;99.90;;;;;;453483;255;27894;-73
2022/12/22 10:47:50;;;;;;;4.47;1.30;;;9.50;99.90;;;;;;455973;261;28068;-72
2022/12/22 10:49:51;;;;;;;3.90;1.67;;;9.50;99.90;;;;;;465234;255;28241;-72
2022/12/22 10:51:53;;;;;;;1.33;1.10;;;9.50;99.90;;;;;;473015;251;27982;-73
2022/12/22 10:53:54;;;;;;;3.03;1.53;;;9.60;99.90;;;;;;472996;251;27531;-72
2022/12/22 10:55:55;;;;;;;1.80;1.10;;;9.70;99.90;;;;;;461318;257;27686;-78
2022/12/22 10:57:56;;;;;;;2.97;1.23;;;9.60;99.90;;;;;;465187;255;28178;-73
2022/12/22 10:59:58;;;;;;;5.53;1.47;;;9.60;99.90;;;;;;473116;251;27905;-73
2022/12/22 11:01:59;;;;;;;3.13;1.50;;;9.60;99.90;;;;;;473124;251;28061;-72
2022/12/22 11:04:00;;;;;;;1.83;1.00;;;9.60;99.90;;;;;;464685;256;27897;-73
2022/12/22 11:06:02;;;;;;;3.03;1.40;;;9.60;99.90;;;;;;473051;251;28247;-73
2022/12/22 11:08:04;;;;;;;2.10;1.23;;;9.60;99.90;;;;;;461413;257;27562;-74
2022/12/22 11:10:05;;;;;;;2.63;1.10;;;9.50;99.90;;;;;;465199;255;27803;-72
2022/12/22 11:12:06;;;;;;;4.60;2.00;;;9.50;99.90;;;;;;473045;251;28013;-72
2022/12/22 11:14:07;;;;;;;1.47;1.10;;;9.50;99.90;;;;;;473045;251;28946;-72
2022/12/22 11:16:09;;;;;;;5.30;1.27;;;9.50;99.90;;;;;;464700;256;28532;-72
2022/12/22 11:18:10;;;;;;;1.80;1.30;;;9.50;99.90;;;;;;473116;251;28466;-73
2022/12/22 11:20:11;;;;;;;1.47;1.10;;;9.50;99.90;;;;;;461415;257;28259;-71
2022/12/22 11:22:12;;;;;;;1.10;1.10;;;9.50;99.90;;;;;;465287;255;28080;-72
2022/12/22 11:24:14;;;;;;;4.73;1.60;;;9.50;99.90;;;;;;473120;251;27891;-72
2022/12/22 11:26:15;;;;;;;1.40;1.17;;;9.50;99.90;;;;;;473041;251;27909;-72
2022/12/22 11:28:16;;;;;;;1.20;1.00;;;9.50;99.90;;;;;;464696;251;28097;-72
2022/12/22 11:30:17;;;;;;;1.80;1.10;;;9.50;99.90;;;;;;473064;251;27564;-73
2022/12/22 11:32:20;;;;;;;1.37;1.10;;;9.50;99.90;;;;;;461355;257;27711;-73
2022/12/22 11:34:20;;;;;;;2.60;1.10;;;9.40;99.90;;;;;;465168;255;28276;-72
2022/12/22 11:36:21;;;;;;;0.90;0.90;;;9.40;99.90;;;;;;473033;251;27663;-72
2022/12/22 11:38:22;;;;;;;1.90;1.03;;;9.40;99.90;;;;;;473048;251;27920;-72
2022/12/22 11:40:24;;;;;;;2.43;1.17;;;9.40;99.90;;;;;;464754;256;27551;-72
2022/12/22 11:42:25;;;;;;;1.50;1.40;;;9.40;99.90;;;;;;473098;251;27985;-72
2022/12/22 11:44:26;;;;;;;1.17;1.07;;;9.40;99.90;;;;;;461363;257;28931;-72
2022/12/22 11:46:28;;;;;;;1.00;1.00;;;9.40;99.90;;;;;;465248;256;28669;-72
2022/12/22 11:48:29;;;;;;;2.03;0.90;;;9.40;99.90;;;;;;474621;245;28391;-74
2022/12/22 11:50:30;;;;;;;1.07;1.07;;;9.40;99.90;;;;;;476048;247;27984;-72
2022/12/22 11:52:31;;;;;;;1.10;1.00;;;9.40;99.90;;;;;;466341;255;28397;-73
2022/12/22 11:54:32;;;;;;;1.80;1.40;;;9.40;99.90;;;;;;466341;254;28527;-72
2022/12/22 11:56:34;;;;;;;2.20;1.10;;;9.50;99.90;;;;;;466336;253;28099;-73
2022/12/22 11:58:35;;;;;;;4.90;1.20;;;9.50;99.90;;;;;;466321;253;28016;-73
2022/12/22 12:00:36;;;;;;;2.30;0.90;;;9.50;99.90;;;;;;466337;253;28007;-72
2022/12/22 12:02:37;;;;;;;2.80;1.37;;;9.50;99.90;;;;;;466376;253;28021;-72
2022/12/22 12:04:39;;;;;;;2.80;1.00;;;9.50;99.90;;;;;;466395;253;27976;-72
2022/12/22 12:06:40;;;;;;;1.40;0.80;;;9.60;99.70;;;;;;466423;253;28003;-73
2022/12/22 12:08:41;;;;;;;0.93;0.93;;;9.60;99.60;;;;;;466412;253;28123;-74
2022/12/22 12:10:42;;;;;;;1.37;1.20;;;9.60;99.90;;;;;;466433;253;28021;-73
2022/12/22 12:12:44;;;;;;;1.07;0.97;;;9.60;98.90;;;;;;466357;253;28027;-73
2022/12/22 12:14:45;;;;;;;1.90;1.03;;;9.60;99.60;;;;;;466339;255;27733;-72
2022/12/22 12:16:46;;;;;;;1.00;0.80;;;9.60;99.90;;;;;;458676;259;28580;-72
2022/12/22 12:18:47;;;;;;;1.30;1.10;;;9.60;98.90;;;;;;467163;254;28322;-72
2022/12/22 12:20:49;;;;;;;1.03;0.93;;;9.60;98.20;;;;;;466342;255;28370;-72
2022/12/22 12:22:50;;;;;;;1.47;0.90;;;9.70;98.30;;;;;;466360;253;28468;-72
2022/12/22 12:24:51;;;;;;;1.10;1.00;;;9.70;98.30;;;;;;466359;253;28317;-72
2022/12/22 12:26:52;;;;;;;1.47;1.20;;;9.70;98.30;;;;;;466350;248;28083;-73
2022/12/22 12:28:54;;;;;;;0.90;0.90;;;9.70;97.70;;;;;;466369;253;28016;-74
2022/12/22 12:30:55;;;;;;;1.00;1.00;;;9.80;98.20;;;;;;466345;253;28033;-72
2022/12/22 12:32:56;;;;;;;1.87;1.00;;;9.80;97.90;;;;;;466360;253;28048;-72
2022/12/22 12:34:57;;;;;;;2.13;1.47;;;9.90;98.00;;;;;;466363;253;27987;-72
2022/12/22 12:36:59;;;;;;;0.97;0.90;;;9.80;97.80;;;;;;466331;253;27648;-72
2022/12/22 12:39:00;;;;;;;2.80;1.10;;;9.80;97.60;;;;;;466358;253;28151;-72
2022/12/22 12:41:01;;;;;;;1.73;1.10;;;9.80;97.90;;;;;;466333;254;27763;-72
2022/12/22 12:43:02;;;;;;;1.10;1.00;;;9.80;97.90;;;;;;466396;253;27995;-73
2022/12/22 12:45:04;;;;;;;1.30;1.20;;;9.80;97.80;;;;;;466405;253;27894;-75
2022/12/22 12:47:05;;;;;;;1.00;1.00;;;9.80;97.70;;;;;;466350;253;28030;-73
2022/12/22 12:49:06;;;;;;;0.90;0.90;;;9.80;97.00;;;;;;458618;259;27941;-73
2022/12/22 12:51:07;;;;;;;1.20;1.00;;;9.90;97.40;;;;;;467195;254;27611;-73
2022/12/22 12:53:09;;;;;;;0.90;0.90;;;9.90;97.20;;;;;;466388;253;27849;-73
2022/12/22 12:55:10;;;;;;;1.30;0.93;;;9.80;97.30;;;;;;466372;253;28661;-73
2022/12/22 12:57:11;;;;;;;0.90;0.90;;;9.70;97.50;;;;;;466376;253;28454;-73
2022/12/22 12:59:12;;;;;;;1.00;0.90;;;9.70;96.90;;;;;;466374;254;28467;-73
2022/12/22 13:01:14;;;;;;;0.90;0.90;;;9.60;97.10;;;;;;466448;253;28461;-73
2022/12/22 13:03:15;;;;;;;1.57;1.10;;;9.70;97.60;;;;;;466448;253;28956;-73
2022/12/22 13:05:16;;;;;;;1.17;1.07;;;9.70;96.80;;;;;;466409;253;28024;-75
2022/12/22 13:07:18;;;;;;;0.80;0.80;;;9.70;96.90;;;;;;466423;253;27744;-72
2022/12/22 13:09:19;;;;;;;2.23;1.13;;;9.70;97.60;;;;;;466416;253;28031;-74
2022/12/22 13:11:20;;;;;;;1.67;1.20;;;9.70;97.60;;;;;;466328;253;28217;-73
2022/12/22 13:13:21;;;;;;;2.47;1.10;;;9.70;97.50;;;;;;466328;253;28441;-73
2022/12/22 13:15:22;;;;;;;1.60;1.10;;;9.70;97.40;;;;;;466336;253;28647;-74
2022/12/22 13:17:24;;;;;;;1.00;1.00;;;9.70;97.60;;;;;;466361;253;28301;-73
2022/12/22 13:19:26;;;;;;;0.90;0.90;;;9.70;97.70;;;;;;466362;253;28557;-73
2022/12/22 13:21:26;;;;;;;1.23;1.13;;;9.60;97.40;;;;;;464837;253;28062;-75
2022/12/22 13:23:27;;;;;;;1.10;1.10;;;9.60;97.50;;;;;;465546;255;27893;-73
2022/12/22 13:25:29;;;;;;;1.10;1.00;;;9.70;97.50;;;;;;464411;255;27696;-73
2022/12/22 13:27:30;;;;;;;1.47;1.20;;;9.70;97.70;;;;;;465146;253;28003;-73
2022/12/22 13:29:31;;;;;;;1.83;1.17;;;9.70;97.50;;;;;;462319;257;27762;-73
2022/12/22 13:31:33;;;;;;;1.30;1.10;;;9.80;97.30;;;;;;473255;249;27926;-73
2022/12/22 13:33:34;;;;;;;1.20;1.10;;;9.90;97.20;;;;;;476026;246;28037;-73
2022/12/22 13:35:35;;;;;;;1.60;1.47;;;9.90;97.40;;;;;;476001;249;27879;-73
2022/12/22 13:37:36;;;;;;;1.37;1.27;;;9.90;97.50;;;;;;476094;249;27603;-73
2022/12/22 13:39:37;;;;;;;2.40;0.90;;;9.90;97.50;;;;;;476066;249;28105;-72
2022/12/22 13:41:39;;;;;;;1.40;1.30;;;9.80;97.80;;;;;;475095;245;28816;-72
2022/12/22 13:43:40;;;;;;;1.43;1.00;;;9.80;97.80;;;;;;461329;257;28416;-73
2022/12/22 13:45:41;;;;;;;1.00;1.00;;;9.80;97.80;;;;;;465175;255;28857;-72
2022/12/22 13:47:43;;;;;;;1.30;1.20;;;9.80;98.00;;;;;;472923;251;27690;-73
2022/12/22 13:49:44;;;;;;;2.70;1.13;;;9.80;97.80;;;;;;473027;251;28001;-73
2022/12/22 13:51:45;;;;;;;1.93;1.40;;;9.70;97.90;;;;;;458152;256;28051;-73
2022/12/22 13:53:46;;;;;;;1.30;1.20;;;9.70;98.00;;;;;;475666;249;28374;-73
2022/12/22 13:55:48;;;;;;;1.20;1.10;;;9.80;97.70;;;;;;466053;255;28321;-73
2022/12/22 13:57:49;;;;;;;1.10;1.10;;;9.80;97.80;;;;;;475689;249;28313;-72
2022/12/22 13:59:50;;;;;;;1.73;1.20;;;9.80;98.00;;;;;;475621;248;28434;-73
2022/12/22 14:01:51;;;;;;;1.80;1.20;;;9.80;98.20;;;;;;475635;249;27853;-72
2022/12/22 14:03:56;;;;;;;1.30;1.20;;;9.80;98.50;;;;;;475623;249;27927;-73
2022/12/22 14:05:54;;;;;;;3.67;1.07;;;9.80;98.40;;;;;;475451;250;27894;-74
2022/12/22 14:07:55;;;;;;;1.00;1.00;;;9.90;98.50;;;;;;475653;250;27536;-72
2022/12/22 14:09:56;;;;;;;1.20;1.10;;;9.80;98.40;;;;;;475623;249;27883;-72
2022/12/22 14:11:58;;;;;;;1.80;1.30;;;9.80;98.60;;;;;;466810;254;27996;-72
2022/12/22 14:13:59;;;;;;;1.47;1.30;;;9.80;98.60;;;;;;475523;249;27880;-72
2022/12/22 14:16:00;;;;;;;1.30;1.30;;;9.80;99.00;;;;;;475594;250;28039;-72
2022/12/22 14:18:01;;;;;;;4.90;1.10;;;9.70;99.50;;;;;;475646;249;28340;-72
2022/12/22 14:20:03;;;;;;;2.13;1.33;;;9.70;99.90;;;;;;475614;250;28354;-71